Time,TemperatureF,DewpointF,PressureIn,WindDirection,WindDirectionDegrees,WindSpeedMPH,WindSpeedGustMPH,Humidity,HourlyPrecipIn,Conditions,Clouds,dailyrainin,SoftwareType,DateUTC
2013-03-05 00:00:00,67.1,52.8,29.77,SSW,192,4.9,6.3,60,0.00,,---,0.00,VWS V14.01,2013-03-05 06:00:00,
2013-03-05 00:05:00,67.1,52.8,29.77,SSW,197,3.6,5.4,60,0.00,,---,0.00,VWS V14.01,2013-03-05 06:05:00,
2013-03-05 00:10:00,67.1,52.8,29.77,South,172,3.6,6.3,60,0.00,,---,0.00,VWS V14.01,2013-03-05 06:10:00,
2013-03-05 00:15:00,67.1,52.8,29.77,South,175,5.4,7.2,60,0.00,,---,0.00,VWS V14.01,2013-03-05 06:15:00,
2013-03-05 00:20:00,67.3,52.9,29.77,SW,214,8.7,11.4,60,0.00,,---,0.00,VWS V14.01,2013-03-05 06:20:00,
2013-03-05 00:25:00,67.3,52.5,29.77,SSW,199,15.0,15.0,59,0.00,,---,0.00,VWS V14.01,2013-03-05 06:25:00,
2013-03-05 00:30:00,67.5,52.2,29.77,South,185,8.1,11.9,58,0.00,,---,0.00,VWS V14.01,2013-03-05 06:30:00,
2013-03-05 00:35:00,67.5,52.2,29.77,South,171,6.3,11.9,58,0.00,,---,0.00,VWS V14.01,2013-03-05 06:35:00,
2013-03-05 00:40:00,67.5,52.2,29.77,SSW,198,8.3,8.7,58,0.00,,---,0.00,VWS V14.01,2013-03-05 06:40:00,
2013-03-05 00:45:00,67.5,52.2,29.77,South,175,8.7,8.7,58,0.00,,---,0.00,VWS V14.01,2013-03-05 06:45:00,
2013-03-05 00:50:00,67.5,52.2,29.77,SSE,160,4.9,5.4,58,0.00,,---,0.00,VWS V14.01,2013-03-05 06:50:00,
2013-03-05 00:55:00,67.5,52.2,29.77,South,187,7.2,7.2,58,0.00,,---,0.00,VWS V14.01,2013-03-05 06:55:00,
2013-03-05 00:59:00,67.5,52.2,29.77,South,182,8.1,10.5,58,0.00,,---,0.00,VWS V14.01,2013-03-05 06:59:00,
2013-03-05 01:04:00,67.5,52.2,29.77,South,169,8.7,8.7,58,0.00,,---,0.00,VWS V14.01,2013-03-05 07:04:00,
2013-03-05 01:09:00,67.5,51.7,29.77,South,189,5.8,12.3,57,0.00,,---,0.00,VWS V14.01,2013-03-05 07:09:00,
2013-03-05 01:14:00,67.5,51.7,29.80,SW,231,7.6,10.5,57,0.00,,---,0.00,VWS V14.01,2013-03-05 07:14:00,
2013-03-05 01:19:00,67.5,51.7,29.80,SSE,156,7.6,9.6,57,0.00,,---,0.00,VWS V14.01,2013-03-05 07:19:00,
2013-03-05 01:24:00,67.5,51.7,29.80,South,176,5.8,5.8,57,0.00,,---,0.00,VWS V14.01,2013-03-05 07:24:00,
2013-03-05 01:29:00,67.5,51.7,29.80,SE,128,5.4,7.2,57,0.00,,---,0.00,VWS V14.01,2013-03-05 07:29:00,
2013-03-05 01:34:00,67.5,51.2,29.80,South,186,11.4,11.4,56,0.00,,---,0.00,VWS V14.01,2013-03-05 07:34:00,
2013-03-05 01:39:00,67.6,51.4,29.80,South,177,11.9,11.9,56,0.00,,---,0.00,VWS V14.01,2013-03-05 07:39:00,
2013-03-05 01:44:00,67.5,51.2,29.77,SSW,194,6.3,8.3,56,0.00,,---,0.00,VWS V14.01,2013-03-05 07:44:00,
2013-03-05 01:49:00,67.5,51.2,29.77,SSE,149,6.3,13.2,56,0.00,,---,0.00,VWS V14.01,2013-03-05 07:49:00,
2013-03-05 01:54:00,67.5,50.8,29.77,South,172,8.3,10.5,55,0.00,,---,0.00,VWS V14.01,2013-03-05 07:54:00,
2013-03-05 01:59:00,67.6,50.9,29.77,SSE,168,11.0,11.0,55,0.00,,---,0.00,VWS V14.01,2013-03-05 07:59:00,
2013-03-05 02:04:00,67.6,50.4,29.77,South,189,8.3,9.6,54,0.00,,---,0.00,VWS V14.01,2013-03-05 08:04:00,
2013-03-05 02:09:00,67.6,50.4,29.77,South,185,9.6,11.0,54,0.00,,---,0.00,VWS V14.01,2013-03-05 08:09:00,
2013-03-05 02:14:00,67.6,50.4,29.77,SE,143,12.8,15.4,54,0.00,,---,0.00,VWS V14.01,2013-03-05 08:14:00,
2013-03-05 02:19:00,67.6,49.9,29.77,South,188,9.6,10.5,53,0.00,,---,0.00,VWS V14.01,2013-03-05 08:19:00,
2013-03-05 02:24:00,67.8,50.1,29.77,South,190,10.5,14.5,53,0.00,,---,0.00,VWS V14.01,2013-03-05 08:24:00,
2013-03-05 02:29:00,67.8,49.6,29.77,SW,217,10.5,10.5,52,0.00,,---,0.00,VWS V14.01,2013-03-05 08:29:00,
2013-03-05 02:34:00,67.8,49.6,29.77,South,181,12.3,14.5,52,0.00,,---,0.00,VWS V14.01,2013-03-05 08:34:00,
2013-03-05 02:39:00,67.8,49.6,29.77,SSE,167,11.9,11.9,52,0.00,,---,0.00,VWS V14.01,2013-03-05 08:39:00,
2013-03-05 02:44:00,67.6,49.4,29.77,South,186,6.3,10.5,52,0.00,,---,0.00,VWS V14.01,2013-03-05 08:44:00,
2013-03-05 02:49:00,67.6,49.4,29.77,South,187,8.1,8.3,52,0.00,,---,0.00,VWS V14.01,2013-03-05 08:49:00,
2013-03-05 02:54:00,67.6,49.4,29.77,SSW,194,8.1,10.5,52,0.00,,---,0.00,VWS V14.01,2013-03-05 08:54:00,
2013-03-05 02:59:00,67.6,49.4,29.77,SE,145,10.5,11.0,52,0.00,,---,0.00,VWS V14.01,2013-03-05 08:59:00,
2013-03-05 03:04:00,67.6,49.4,29.77,ESE,118,8.1,8.1,52,0.00,,---,0.00,VWS V14.01,2013-03-05 09:04:00,
2013-03-05 03:09:00,67.6,49.4,29.77,South,182,8.7,8.7,52,0.00,,---,0.00,VWS V14.01,2013-03-05 09:09:00,
2013-03-05 03:14:00,67.6,49.4,29.77,South,185,6.3,6.3,52,0.00,,---,0.00,VWS V14.01,2013-03-05 09:14:00,
2013-03-05 03:19:00,67.6,49.4,29.77,South,182,7.2,7.2,52,0.00,,---,0.00,VWS V14.01,2013-03-05 09:19:00,
2013-03-05 03:24:00,67.6,49.4,29.77,South,181,8.3,10.5,52,0.00,,---,0.00,VWS V14.01,2013-03-05 09:24:00,
2013-03-05 03:29:00,67.8,49.6,29.77,SE,142,8.7,8.7,52,0.00,,---,0.00,VWS V14.01,2013-03-05 09:29:00,
2013-03-05 03:34:00,67.8,49.6,29.77,South,172,8.1,10.5,52,0.00,,---,0.00,VWS V14.01,2013-03-05 09:34:00,
2013-03-05 03:39:00,67.8,49.6,29.77,SW,214,8.1,11.0,52,0.00,,---,0.00,VWS V14.01,2013-03-05 09:39:00,
2013-03-05 03:44:00,67.8,49.6,29.77,SSE,162,5.8,8.7,52,0.00,,---,0.00,VWS V14.01,2013-03-05 09:44:00,
2013-03-05 03:49:00,67.8,49.6,29.77,SSW,199,5.4,12.8,52,0.00,,---,0.00,VWS V14.01,2013-03-05 09:49:00,
2013-03-05 03:54:00,67.6,49.4,29.77,South,183,6.3,8.3,52,0.00,,---,0.00,VWS V14.01,2013-03-05 09:54:00,
2013-03-05 03:59:00,67.6,49.9,29.77,South,188,10.5,10.5,53,0.00,,---,0.00,VWS V14.01,2013-03-05 09:59:00,
2013-03-05 04:04:00,67.6,49.9,29.77,SSE,167,7.6,7.6,53,0.00,,---,0.00,VWS V14.01,2013-03-05 10:04:00,
2013-03-05 04:09:00,67.6,49.9,29.77,SW,222,8.7,8.7,53,0.00,,---,0.00,VWS V14.01,2013-03-05 10:09:00,
2013-03-05 04:14:00,67.5,49.8,29.80,South,190,7.6,7.6,53,0.00,,---,0.00,VWS V14.01,2013-03-05 10:14:00,
2013-03-05 04:19:00,67.5,49.8,29.80,SSE,165,6.3,8.3,53,0.00,,---,0.00,VWS V14.01,2013-03-05 10:19:00,
2013-03-05 04:24:00,67.5,50.2,29.80,SSE,156,5.8,5.8,54,0.00,,---,0.00,VWS V14.01,2013-03-05 10:24:00,
2013-03-05 04:29:00,67.5,50.2,29.83,West,265,17.0,17.0,54,0.00,,---,0.00,VWS V14.01,2013-03-05 10:29:00,
2013-03-05 04:34:00,67.6,50.4,29.83,WSW,251,8.3,15.0,54,0.00,,---,0.00,VWS V14.01,2013-03-05 10:34:00,
2013-03-05 04:39:00,67.6,50.4,29.83,SSW,202,3.6,7.6,54,0.00,,---,0.00,VWS V14.01,2013-03-05 10:39:00,
2013-03-05 04:44:00,67.8,50.6,29.88,West,276,10.5,12.8,54,0.00,,---,0.00,VWS V14.01,2013-03-05 10:44:00,
2013-03-05 04:49:00,67.8,50.6,29.88,WSW,248,8.1,8.1,54,0.00,,---,0.00,VWS V14.01,2013-03-05 10:49:00,
2013-03-05 04:54:00,67.8,50.6,29.88,West,266,6.3,8.1,54,0.00,,---,0.00,VWS V14.01,2013-03-05 10:54:00,
2013-03-05 04:59:00,67.8,50.6,29.88,West,266,9.6,9.6,54,0.00,,---,0.00,VWS V14.01,2013-03-05 10:59:00,
2013-03-05 05:04:00,67.6,50.4,29.88,WSW,248,7.6,10.5,54,0.00,,---,0.00,VWS V14.01,2013-03-05 11:04:00,
2013-03-05 05:09:00,67.6,49.9,29.88,WNW,296,10.1,11.0,53,0.00,,---,0.00,VWS V14.01,2013-03-05 11:09:00,
2013-03-05 05:14:00,67.6,50.4,29.91,WSW,247,5.8,7.6,54,0.00,,---,0.00,VWS V14.01,2013-03-05 11:14:00,
2013-03-05 05:19:00,67.5,50.2,29.91,West,275,10.5,10.5,54,0.00,,---,0.00,VWS V14.01,2013-03-05 11:19:00,
2013-03-05 05:24:00,67.3,50.6,29.91,WSW,258,6.3,6.3,55,0.00,,---,0.00,VWS V14.01,2013-03-05 11:24:00,
2013-03-05 05:29:00,67.3,50.6,29.91,West,265,7.6,8.3,55,0.00,,---,0.00,VWS V14.01,2013-03-05 11:29:00,
2013-03-05 05:34:00,67.1,50.4,29.91,WSW,240,7.6,8.1,55,0.00,,---,0.00,VWS V14.01,2013-03-05 11:34:00,
2013-03-05 05:39:00,67.1,50.9,29.91,SW,234,5.4,7.2,56,0.00,,---,0.00,VWS V14.01,2013-03-05 11:39:00,
2013-03-05 05:44:00,66.9,50.2,29.91,West,281,5.4,6.3,55,0.00,,---,0.00,VWS V14.01,2013-03-05 11:44:00,
2013-03-05 05:49:00,66.9,50.2,29.91,West,264,5.8,8.3,55,0.00,,---,0.00,VWS V14.01,2013-03-05 11:49:00,
2013-03-05 05:54:00,66.7,50.1,29.91,West,269,5.4,6.3,55,0.00,,---,0.00,VWS V14.01,2013-03-05 11:54:00,
2013-03-05 05:59:00,66.7,49.6,29.91,SW,231,5.8,5.8,54,0.00,,---,0.00,VWS V14.01,2013-03-05 11:59:00,
2013-03-05 06:04:00,66.4,49.2,29.91,SW,217,4.0,4.0,54,0.00,,---,0.00,VWS V14.01,2013-03-05 12:04:00,
2013-03-05 06:09:00,66.4,49.2,29.91,West,260,4.9,5.4,54,0.00,,---,0.00,VWS V14.01,2013-03-05 12:09:00,
2013-03-05 06:14:00,66.2,49.1,29.94,WSW,246,5.4,7.6,54,0.00,,---,0.00,VWS V14.01,2013-03-05 12:14:00,
2013-03-05 06:19:00,66.0,48.9,29.94,West,269,13.2,15.0,54,0.00,,---,0.00,VWS V14.01,2013-03-05 12:19:00,
2013-03-05 06:24:00,64.8,37.9,29.94,WNW,298,15.9,16.8,37,0.00,,---,0.00,VWS V14.01,2013-03-05 12:24:00,
2013-03-05 06:29:00,63.5,36.1,29.97,WNW,283,10.5,12.3,36,0.00,,---,0.00,VWS V14.01,2013-03-05 12:29:00,
2013-03-05 06:34:00,62.6,35.3,29.97,West,272,22.8,22.8,36,0.00,,---,0.00,VWS V14.01,2013-03-05 12:34:00,
2013-03-05 06:39:00,61.3,34.2,29.97,WSW,251,11.0,15.0,36,0.00,,---,0.00,VWS V14.01,2013-03-05 12:39:00,
2013-03-05 06:44:00,60.4,33.4,29.97,West,281,19.7,19.7,36,0.00,,---,0.00,VWS V14.01,2013-03-05 12:44:00,
2013-03-05 06:49:00,59.7,32.7,29.97,WNW,289,17.0,17.0,36,0.00,,---,0.00,VWS V14.01,2013-03-05 12:49:00,
2013-03-05 06:54:00,59.0,32.1,29.97,West,270,10.5,10.5,36,0.00,,---,0.00,VWS V14.01,2013-03-05 12:54:00,
2013-03-05 06:59:00,58.6,32.5,30.00,WNW,292,14.5,15.4,37,0.00,,---,0.00,VWS V14.01,2013-03-05 12:59:00,
2013-03-05 07:04:00,58.5,32.3,30.00,WNW,295,16.8,16.8,37,0.00,,---,0.00,VWS V14.01,2013-03-05 13:04:00,
2013-03-05 07:09:00,58.5,32.3,30.00,WNW,289,20.1,20.1,37,0.00,,---,0.00,VWS V14.01,2013-03-05 13:09:00,
2013-03-05 07:14:00,58.6,32.5,30.00,WNW,290,16.3,17.0,37,0.00,,---,0.00,VWS V14.01,2013-03-05 13:14:00,
2013-03-05 07:19:00,58.8,32.0,30.00,NW,315,17.4,17.4,36,0.00,,---,0.00,VWS V14.01,2013-03-05 13:19:00,
2013-03-05 07:24:00,58.8,32.0,30.00,WNW,282,6.3,11.0,36,0.00,,---,0.00,VWS V14.01,2013-03-05 13:24:00,
2013-03-05 07:29:00,58.6,31.1,30.00,WNW,284,18.3,18.3,35,0.00,,---,0.00,VWS V14.01,2013-03-05 13:29:00,
2013-03-05 07:34:00,58.6,31.8,30.00,WNW,286,17.0,17.4,36,0.00,,---,0.00,VWS V14.01,2013-03-05 13:34:00,
2013-03-05 07:39:00,58.5,30.9,30.00,WNW,294,21.5,21.5,35,0.00,,---,0.00,VWS V14.01,2013-03-05 13:39:00,
2013-03-05 07:44:00,58.5,30.9,30.03,WNW,298,15.0,15.0,35,0.00,,---,0.00,VWS V14.01,2013-03-05 13:44:00,
2013-03-05 07:49:00,58.3,30.8,30.03,NNW,335,15.0,15.0,35,0.00,,---,0.00,VWS V14.01,2013-03-05 13:49:00,
2013-03-05 07:54:00,57.9,30.5,30.03,North,357,19.7,19.7,35,0.00,,---,0.00,VWS V14.01,2013-03-05 13:54:00,
2013-03-05 07:59:00,57.6,30.1,30.03,West,276,15.0,15.0,35,0.00,,---,0.00,VWS V14.01,2013-03-05 13:59:00,
2013-03-05 08:04:00,57.2,29.8,30.03,NW,326,15.0,15.0,35,0.00,,---,0.00,VWS V14.01,2013-03-05 14:04:00,
2013-03-05 08:09:00,57.0,29.7,30.03,WNW,286,19.7,19.7,35,0.00,,---,0.00,VWS V14.01,2013-03-05 14:09:00,
2013-03-05 08:14:00,56.7,29.3,30.06,West,276,11.4,15.4,35,0.00,,---,0.00,VWS V14.01,2013-03-05 14:14:00,
2013-03-05 08:19:00,56.5,29.2,30.06,NW,312,19.7,19.7,35,0.00,,---,0.00,VWS V14.01,2013-03-05 14:19:00,
2013-03-05 08:24:00,56.3,29.0,30.06,NNW,332,20.6,20.6,35,0.00,,---,0.00,VWS V14.01,2013-03-05 14:24:00,
2013-03-05 08:29:00,56.3,29.0,30.06,NW,316,15.4,15.4,35,0.00,,---,0.00,VWS V14.01,2013-03-05 14:29:00,
2013-03-05 08:34:00,56.7,29.3,30.06,NNW,327,13.2,13.2,35,0.00,,---,0.00,VWS V14.01,2013-03-05 14:34:00,
2013-03-05 08:39:00,56.8,27.3,30.06,WNW,302,13.6,13.6,32,0.00,,---,0.00,VWS V14.01,2013-03-05 14:39:00,
2013-03-05 08:44:00,57.4,27.8,30.06,WNW,302,6.3,9.2,32,0.00,,---,0.00,VWS V14.01,2013-03-05 14:44:00,
2013-03-05 08:49:00,57.9,27.5,30.06,WNW,303,21.9,21.9,31,0.00,,---,0.00,VWS V14.01,2013-03-05 14:49:00,
2013-03-05 08:54:00,58.1,26.9,30.06,NW,324,11.4,15.0,30,0.00,,---,0.00,VWS V14.01,2013-03-05 14:54:00,
2013-03-05 08:59:00,58.6,26.5,30.09,WNW,283,3.6,8.3,29,0.00,,---,0.00,VWS V14.01,2013-03-05 14:59:00,
2013-03-05 09:04:00,59.2,26.1,30.09,NW,318,14.5,14.5,28,0.00,,---,0.00,VWS V14.01,2013-03-05 15:04:00,
2013-03-05 09:09:00,59.4,25.4,30.09,NNW,329,13.2,13.2,27,0.00,,---,0.00,VWS V14.01,2013-03-05 15:09:00,
2013-03-05 09:14:00,59.7,25.7,30.09,NW,317,8.3,8.3,27,0.00,,---,0.00,VWS V14.01,2013-03-05 15:14:00,
2013-03-05 09:19:00,60.3,26.2,30.09,NW,321,13.2,15.0,27,0.00,,---,0.00,VWS V14.01,2013-03-05 15:19:00,
2013-03-05 09:24:00,60.6,25.6,30.09,WNW,288,12.3,12.3,26,0.00,,---,0.00,VWS V14.01,2013-03-05 15:24:00,
2013-03-05 09:29:00,61.0,25.9,30.09,WNW,301,11.0,12.8,26,0.00,,---,0.00,VWS V14.01,2013-03-05 15:29:00,
2013-03-05 09:34:00,61.3,25.2,30.09,West,280,8.7,15.0,25,0.00,,---,0.00,VWS V14.01,2013-03-05 15:34:00,
2013-03-05 09:39:00,61.5,25.4,30.09,NW,315,19.2,19.2,25,0.00,,---,0.00,VWS V14.01,2013-03-05 15:39:00,
2013-03-05 09:44:00,61.9,25.7,30.09,NE,47,8.7,8.7,25,0.00,,---,0.00,VWS V14.01,2013-03-05 15:44:00,
2013-03-05 09:49:00,62.2,26.0,30.09,WNW,294,8.1,10.5,25,0.00,,---,0.00,VWS V14.01,2013-03-05 15:49:00,
2013-03-05 09:54:00,62.6,25.3,30.09,WNW,288,15.0,17.4,24,0.00,,---,0.00,VWS V14.01,2013-03-05 15:54:00,
2013-03-05 09:59:00,62.6,25.3,30.09,NW,305,8.1,8.7,24,0.00,,---,0.00,VWS V14.01,2013-03-05 15:59:00,
2013-03-05 10:04:00,63.0,25.6,30.09,NW,319,15.4,15.4,24,0.00,,---,0.00,VWS V14.01,2013-03-05 16:04:00,
2013-03-05 10:09:00,63.1,25.8,30.09,WNW,284,11.0,11.0,24,0.00,,---,0.00,VWS V14.01,2013-03-05 16:09:00,
2013-03-05 10:14:00,63.3,25.9,30.12,NNW,328,13.6,15.4,24,0.00,,---,0.00,VWS V14.01,2013-03-05 16:14:00,
2013-03-05 10:19:00,63.7,26.2,30.12,NW,308,12.8,12.8,24,0.00,,---,0.00,VWS V14.01,2013-03-05 16:19:00,
2013-03-05 10:24:00,64.0,26.5,30.12,West,278,11.0,11.0,24,0.00,,---,0.00,VWS V14.01,2013-03-05 16:24:00,
2013-03-05 10:29:00,64.2,26.7,30.12,West,280,10.5,15.4,24,0.00,,---,0.00,VWS V14.01,2013-03-05 16:29:00,
2013-03-05 10:34:00,64.2,25.7,30.12,WNW,289,21.5,21.5,23,0.00,,---,0.00,VWS V14.01,2013-03-05 16:34:00,
2013-03-05 10:39:00,64.4,25.8,30.12,NW,315,19.7,19.7,23,0.00,,---,0.00,VWS V14.01,2013-03-05 16:39:00,
2013-03-05 10:44:00,64.4,25.8,30.12,WNW,287,15.0,15.0,23,0.00,,---,0.00,VWS V14.01,2013-03-05 16:44:00,
2013-03-05 10:49:00,64.4,25.8,30.12,NW,321,8.3,16.8,23,0.00,,---,0.00,VWS V14.01,2013-03-05 16:49:00,
2013-03-05 10:54:00,64.8,26.1,30.12,NW,315,12.8,12.8,23,0.00,,---,0.00,VWS V14.01,2013-03-05 16:54:00,
2013-03-05 10:59:00,64.9,22.9,30.12,NW,321,17.0,20.6,20,0.00,,---,0.00,VWS V14.01,2013-03-05 16:59:00,
2013-03-05 11:04:00,65.3,23.2,30.12,NNW,337,17.0,19.2,20,0.00,,---,0.00,VWS V14.01,2013-03-05 17:04:00,
2013-03-05 11:09:00,65.7,26.9,30.12,NW,312,13.2,13.2,23,0.00,,---,0.00,VWS V14.01,2013-03-05 17:09:00,
2013-03-05 11:14:00,66.2,24.0,30.12,NW,305,15.4,15.4,20,0.00,,---,0.00,VWS V14.01,2013-03-05 17:14:00,
2013-03-05 11:19:00,66.6,24.3,30.12,NNW,329,11.9,11.9,20,0.00,,---,0.00,VWS V14.01,2013-03-05 17:19:00,
2013-03-05 11:24:00,66.6,24.3,30.12,NW,325,17.4,17.4,20,0.00,,---,0.00,VWS V14.01,2013-03-05 17:24:00,
2013-03-05 11:29:00,66.6,20.4,30.15,West,259,12.3,12.3,17,0.00,,---,0.00,VWS V14.01,2013-03-05 17:29:00,
2013-03-05 11:34:00,66.6,20.4,30.15,NW,321,10.1,17.4,17,0.00,,---,0.00,VWS V14.01,2013-03-05 17:34:00,
2013-03-05 11:39:00,66.6,20.4,30.15,NW,315,8.1,14.5,17,0.00,,---,0.00,VWS V14.01,2013-03-05 17:39:00,
2013-03-05 11:44:00,66.7,20.6,30.15,NNW,332,14.5,14.5,17,0.00,,---,0.00,VWS V14.01,2013-03-05 17:44:00,
2013-03-05 11:49:00,67.3,21.0,30.15,NW,316,11.0,13.2,17,0.00,,---,0.00,VWS V14.01,2013-03-05 17:49:00,
2013-03-05 11:54:00,67.8,21.5,30.15,NW,320,15.0,19.7,17,0.00,,---,0.00,VWS V14.01,2013-03-05 17:54:00,
2013-03-05 11:59:00,68.4,21.9,30.15,NW,325,11.0,12.3,17,0.00,,---,0.00,VWS V14.01,2013-03-05 17:59:00,
2013-03-05 12:04:00,68.9,22.3,30.15,NNW,328,12.8,12.8,17,0.00,,---,0.00,VWS V14.01,2013-03-05 18:04:00,
2013-03-05 12:09:00,68.9,22.3,30.15,NNW,327,8.1,8.1,17,0.00,,---,0.00,VWS V14.01,2013-03-05 18:09:00,
2013-03-05 12:14:00,68.7,19.2,30.12,West,273,11.0,17.0,15,0.00,,---,0.00,VWS V14.01,2013-03-05 18:14:00,
2013-03-05 12:19:00,68.9,19.4,30.12,NW,324,10.1,19.2,15,0.00,,---,0.00,VWS V14.01,2013-03-05 18:19:00,
2013-03-05 12:24:00,68.9,19.4,30.12,SW,218,8.3,13.2,15,0.00,,---,0.00,VWS V14.01,2013-03-05 18:24:00,
2013-03-05 12:29:00,69.1,19.5,30.12,WNW,286,7.6,10.5,15,0.00,,---,0.00,VWS V14.01,2013-03-05 18:29:00,
2013-03-05 12:34:00,69.6,20.0,30.12,WNW,301,11.0,11.0,15,0.00,,---,0.00,VWS V14.01,2013-03-05 18:34:00,
2013-03-05 12:39:00,70.2,18.8,30.12,NW,321,5.8,12.3,14,0.00,,---,0.00,VWS V14.01,2013-03-05 18:39:00,
2013-03-05 12:44:00,70.5,19.1,30.12,NNW,341,11.0,18.8,14,0.00,,---,0.00,VWS V14.01,2013-03-05 18:44:00,
2013-03-05 12:49:00,70.5,19.1,30.12,West,278,15.0,15.0,14,0.00,,---,0.00,VWS V14.01,2013-03-05 18:49:00,
2013-03-05 12:54:00,70.7,19.2,30.12,NNW,330,8.7,15.0,14,0.00,,---,0.00,VWS V14.01,2013-03-05 18:54:00,
2013-03-05 12:59:00,70.9,19.4,30.12,WSW,247,10.5,10.5,14,0.00,,---,0.00,VWS V14.01,2013-03-05 18:59:00,
2013-03-05 13:04:00,70.9,19.4,30.12,NW,321,12.3,15.0,14,0.00,,---,0.00,VWS V14.01,2013-03-05 19:04:00,
2013-03-05 13:09:00,71.2,19.6,30.12,West,273,15.4,15.4,14,0.00,,---,0.00,VWS V14.01,2013-03-05 19:09:00,
2013-03-05 13:14:00,71.1,19.5,30.12,West,281,10.1,10.1,14,0.00,,---,0.00,VWS V14.01,2013-03-05 19:14:00,
2013-03-05 13:19:00,71.2,19.6,30.12,WSW,252,15.0,15.4,14,0.00,,---,0.00,VWS V14.01,2013-03-05 19:19:00,
2013-03-05 13:24:00,71.4,19.8,30.12,WNW,287,13.2,13.2,14,0.00,,---,0.00,VWS V14.01,2013-03-05 19:24:00,
2013-03-05 13:29:00,71.8,20.1,30.12,NW,304,15.4,15.4,14,0.00,,---,0.00,VWS V14.01,2013-03-05 19:29:00,
2013-03-05 13:34:00,71.6,19.9,30.12,West,262,12.8,15.0,14,0.00,,---,0.00,VWS V14.01,2013-03-05 19:34:00,
2013-03-05 13:39:00,71.8,20.1,30.12,West,265,15.0,17.4,14,0.00,,---,0.00,VWS V14.01,2013-03-05 19:39:00,
2013-03-05 13:44:00,71.6,14.4,30.12,WNW,287,9.2,11.9,11,0.00,,---,0.00,VWS V14.01,2013-03-05 19:44:00,
2013-03-05 13:49:00,72.0,14.6,30.12,NNW,348,3.1,10.5,11,0.00,,---,0.00,VWS V14.01,2013-03-05 19:49:00,
2013-03-05 13:54:00,72.5,20.6,30.12,WNW,284,15.4,15.4,14,0.00,,---,0.00,VWS V14.01,2013-03-05 19:54:00,
2013-03-05 13:59:00,72.5,15.0,30.12,NW,325,15.9,15.9,11,0.00,,---,0.00,VWS V14.01,2013-03-05 19:59:00,
2013-03-05 14:04:00,72.1,14.8,30.12,NNW,338,13.2,13.6,11,0.00,,---,0.00,VWS V14.01,2013-03-05 20:04:00,
2013-03-05 14:09:00,72.0,14.6,30.12,WNW,288,13.6,13.6,11,0.00,,---,0.00,VWS V14.01,2013-03-05 20:09:00,
2013-03-05 14:14:00,71.8,14.5,30.12,WNW,289,11.9,15.0,11,0.00,,---,0.00,VWS V14.01,2013-03-05 20:14:00,
2013-03-05 14:19:00,71.6,14.4,30.12,NW,326,13.2,15.4,11,0.00,,---,0.00,VWS V14.01,2013-03-05 20:19:00,
2013-03-05 14:24:00,72.0,14.6,30.12,WSW,250,11.0,11.0,11,0.00,,---,0.00,VWS V14.01,2013-03-05 20:24:00,
2013-03-05 14:29:00,72.7,15.2,30.12,SW,214,17.9,17.9,11,0.00,,---,0.00,VWS V14.01,2013-03-05 20:29:00,
2013-03-05 14:34:00,72.5,15.0,30.12,WNW,293,16.3,16.3,11,0.00,,---,0.00,VWS V14.01,2013-03-05 20:34:00,
2013-03-05 14:39:00,72.5,15.0,30.12,WNW,294,5.4,8.3,11,0.00,,---,0.00,VWS V14.01,2013-03-05 20:39:00,
2013-03-05 14:44:00,72.5,15.0,30.12,WSW,237,11.0,16.3,11,0.00,,---,0.00,VWS V14.01,2013-03-05 20:44:00,
2013-03-05 14:49:00,72.3,14.9,30.12,West,277,16.8,17.4,11,0.00,,---,0.00,VWS V14.01,2013-03-05 20:49:00,
2013-03-05 14:54:00,72.3,14.9,30.12,West,271,10.1,10.5,11,0.00,,---,0.00,VWS V14.01,2013-03-05 20:54:00,
2013-03-05 14:59:00,73.0,15.5,30.12,NW,304,15.0,15.0,11,0.00,,---,0.00,VWS V14.01,2013-03-05 20:59:00,
2013-03-05 15:03:00,72.9,15.3,30.12,NNW,337,13.2,15.0,11,0.00,,---,0.00,VWS V14.01,2013-03-05 21:03:00,
2013-03-05 15:08:00,72.7,15.2,30.12,West,262,16.8,17.0,11,0.00,,---,0.00,VWS V14.01,2013-03-05 21:08:00,
2013-03-05 15:13:00,72.3,14.9,30.12,NNW,335,11.0,11.0,11,0.00,,---,0.00,VWS V14.01,2013-03-05 21:13:00,
2013-03-05 15:18:00,72.1,14.8,30.12,NNW,337,12.3,15.4,11,0.00,,---,0.00,VWS V14.01,2013-03-05 21:18:00,
2013-03-05 15:23:00,72.1,14.8,30.12,WNW,288,12.8,13.2,11,0.00,,---,0.00,VWS V14.01,2013-03-05 21:23:00,
2013-03-05 15:28:00,72.3,14.9,30.12,West,278,13.2,14.1,11,0.00,,---,0.00,VWS V14.01,2013-03-05 21:28:00,
2013-03-05 15:33:00,71.8,14.5,30.12,NW,324,12.3,13.6,11,0.00,,---,0.00,VWS V14.01,2013-03-05 21:33:00,
2013-03-05 15:38:00,71.4,16.2,30.12,West,277,15.4,18.3,12,0.00,,---,0.00,VWS V14.01,2013-03-05 21:38:00,
2013-03-05 15:43:00,71.2,16.1,30.12,WNW,282,10.1,11.0,12,0.00,,---,0.00,VWS V14.01,2013-03-05 21:43:00,
2013-03-05 15:48:00,70.7,15.6,30.12,WNW,282,8.1,10.1,12,0.00,,---,0.00,VWS V14.01,2013-03-05 21:48:00,
2013-03-05 15:53:00,70.9,15.8,30.12,West,279,17.0,17.0,12,0.00,,---,0.00,VWS V14.01,2013-03-05 21:53:00,
2013-03-05 15:58:00,70.7,15.6,30.12,WNW,291,15.0,17.4,12,0.00,,---,0.00,VWS V14.01,2013-03-05 21:58:00,
2013-03-05 16:03:00,70.3,15.4,30.12,West,275,11.4,14.5,12,0.00,,---,0.00,VWS V14.01,2013-03-05 22:03:00,
2013-03-05 16:08:00,70.0,15.1,30.12,West,273,12.8,15.9,12,0.00,,---,0.00,VWS V14.01,2013-03-05 22:08:00,
2013-03-05 16:13:00,69.8,14.9,30.15,WNW,286,8.3,15.4,12,0.00,,---,0.00,VWS V14.01,2013-03-05 22:13:00,
2013-03-05 16:18:00,70.2,15.2,30.15,WNW,284,8.7,10.5,12,0.00,,---,0.00,VWS V14.01,2013-03-05 22:18:00,
2013-03-05 16:23:00,70.7,15.6,30.15,NW,319,8.3,10.5,12,0.00,,---,0.00,VWS V14.01,2013-03-05 22:23:00,
2013-03-05 16:28:00,70.7,15.6,30.12,NW,323,14.5,18.8,12,0.00,,---,0.00,VWS V14.01,2013-03-05 22:28:00,
2013-03-05 16:33:00,69.8,14.9,30.12,NW,310,11.0,12.3,12,0.00,,---,0.00,VWS V14.01,2013-03-05 22:33:00,
2013-03-05 16:38:00,68.5,13.9,30.12,WNW,284,10.1,10.1,12,0.00,,---,0.00,VWS V14.01,2013-03-05 22:38:00,
2013-03-05 16:43:00,68.4,13.8,30.12,West,274,15.0,15.4,12,0.00,,---,0.00,VWS V14.01,2013-03-05 22:43:00,
2013-03-05 16:48:00,68.9,14.2,30.12,WNW,284,10.5,15.0,12,0.00,,---,0.00,VWS V14.01,2013-03-05 22:48:00,
2013-03-05 16:53:00,69.3,14.5,30.12,NW,318,7.6,10.5,12,0.00,,---,0.00,VWS V14.01,2013-03-05 22:53:00,
2013-03-05 16:58:00,69.1,14.4,30.15,WNW,291,8.3,10.5,12,0.00,,---,0.00,VWS V14.01,2013-03-05 22:58:00,
2013-03-05 17:03:00,68.9,14.2,30.15,West,260,18.8,18.8,12,0.00,,---,0.00,VWS V14.01,2013-03-05 23:03:00,
2013-03-05 17:08:00,68.7,14.1,30.15,West,276,10.5,11.0,12,0.00,,---,0.00,VWS V14.01,2013-03-05 23:08:00,
2013-03-05 17:13:00,68.5,13.9,30.15,NNW,331,8.1,15.4,12,0.00,,---,0.00,VWS V14.01,2013-03-05 23:13:00,
2013-03-05 17:18:00,68.2,13.7,30.15,WNW,283,7.6,16.3,12,0.00,,---,0.00,VWS V14.01,2013-03-05 23:18:00,
2013-03-05 17:23:00,68.0,13.5,30.15,WSW,257,8.7,11.0,12,0.00,,---,0.00,VWS V14.01,2013-03-05 23:23:00,
2013-03-05 17:28:00,68.2,13.7,30.15,West,279,10.1,15.0,12,0.00,,---,0.00,VWS V14.01,2013-03-05 23:28:00,
2013-03-05 17:33:00,67.8,13.4,30.15,WNW,297,8.7,12.8,12,0.00,,---,0.00,VWS V14.01,2013-03-05 23:33:00,
2013-03-05 17:38:00,67.5,13.1,30.15,West,262,10.1,12.8,12,0.00,,---,0.00,VWS V14.01,2013-03-05 23:38:00,
2013-03-05 17:43:00,66.7,12.5,30.15,WNW,293,10.5,11.0,12,0.00,,---,0.00,VWS V14.01,2013-03-05 23:43:00,
2013-03-05 17:48:00,65.7,13.5,30.15,NNW,328,10.5,10.5,13,0.00,,---,0.00,VWS V14.01,2013-03-05 23:48:00,
2013-03-05 17:53:00,65.3,13.2,30.15,NE,39,9.6,10.1,13,0.00,,---,0.00,VWS V14.01,2013-03-05 23:53:00,
2013-03-05 17:58:00,65.1,13.1,30.15,West,265,5.8,14.1,13,0.00,,---,0.00,VWS V14.01,2013-03-05 23:58:00,
2013-03-05 18:03:00,64.6,12.7,30.15,WNW,295,12.8,12.8,13,0.00,,---,0.00,VWS V14.01,2013-03-06 00:03:00,
2013-03-05 18:08:00,63.9,12.1,30.15,NW,306,8.1,10.1,13,0.00,,---,0.00,VWS V14.01,2013-03-06 00:08:00,
2013-03-05 18:13:00,63.1,11.5,30.15,NW,310,5.4,8.7,13,0.00,,---,0.00,VWS V14.01,2013-03-06 00:13:00,
2013-03-05 18:18:00,62.8,11.2,30.15,NW,307,7.6,8.3,13,0.00,,---,0.00,VWS V14.01,2013-03-06 00:18:00,
2013-03-05 18:23:00,62.4,12.6,30.15,WNW,289,8.3,9.6,14,0.00,,---,0.00,VWS V14.01,2013-03-06 00:23:00,
2013-03-05 18:28:00,62.1,12.3,30.18,WNW,302,6.3,8.1,14,0.00,,---,0.00,VWS V14.01,2013-03-06 00:28:00,
2013-03-05 18:33:00,61.7,12.1,30.18,WNW,283,6.3,10.5,14,0.00,,---,0.00,VWS V14.01,2013-03-06 00:33:00,
2013-03-05 18:38:00,61.5,11.9,30.18,WNW,294,11.0,11.0,14,0.00,,---,0.00,VWS V14.01,2013-03-06 00:38:00,
2013-03-05 18:43:00,61.3,11.8,30.18,West,264,5.8,10.1,14,0.00,,---,0.00,VWS V14.01,2013-03-06 00:43:00,
2013-03-05 18:48:00,61.3,11.8,30.18,West,265,7.2,11.0,14,0.00,,---,0.00,VWS V14.01,2013-03-06 00:48:00,
2013-03-05 18:53:00,61.0,11.5,30.18,NW,314,8.1,10.5,14,0.00,,---,0.00,VWS V14.01,2013-03-06 00:53:00,
2013-03-05 18:58:00,60.8,11.3,30.18,WNW,282,12.3,12.3,14,0.00,,---,0.00,VWS V14.01,2013-03-06 00:58:00,
2013-03-05 19:03:00,60.6,11.2,30.18,NW,312,7.6,8.1,14,0.00,,---,0.00,VWS V14.01,2013-03-06 01:03:00,
2013-03-05 19:08:00,60.4,11.0,30.18,NW,306,8.3,8.3,14,0.00,,---,0.00,VWS V14.01,2013-03-06 01:08:00,
2013-03-05 19:13:00,60.3,10.9,30.18,WNW,284,8.3,11.0,14,0.00,,---,0.00,VWS V14.01,2013-03-06 01:13:00,
2013-03-05 19:18:00,60.1,10.8,30.18,West,261,8.1,10.5,14,0.00,,---,0.00,VWS V14.01,2013-03-06 01:18:00,
2013-03-05 19:23:00,60.1,10.8,30.18,WNW,291,12.8,13.2,14,0.00,,---,0.00,VWS V14.01,2013-03-06 01:23:00,
2013-03-05 19:28:00,59.9,10.6,30.18,WNW,283,7.6,8.3,14,0.00,,---,0.00,VWS V14.01,2013-03-06 01:28:00,
2013-03-05 19:33:00,59.7,10.5,30.18,NNW,328,8.7,12.3,14,0.00,,---,0.00,VWS V14.01,2013-03-06 01:33:00,
2013-03-05 19:38:00,59.5,10.3,30.18,NW,315,11.0,11.0,14,0.00,,---,0.00,VWS V14.01,2013-03-06 01:38:00,
2013-03-05 19:43:00,59.4,10.2,30.21,West,278,6.3,8.1,14,0.00,,---,0.00,VWS V14.01,2013-03-06 01:43:00,
2013-03-05 19:48:00,59.0,9.9,30.21,WNW,302,4.0,5.4,14,0.00,,---,0.00,VWS V14.01,2013-03-06 01:48:00,
2013-03-05 19:53:00,58.8,9.8,30.21,NW,309,6.3,6.3,14,0.00,,---,0.00,VWS V14.01,2013-03-06 01:53:00,
2013-03-05 19:58:00,58.3,9.3,30.21,WNW,284,8.7,12.3,14,0.00,,---,0.00,VWS V14.01,2013-03-06 01:58:00,
2013-03-05 20:03:00,58.1,9.2,30.21,WNW,286,8.3,8.7,14,0.00,,---,0.00,VWS V14.01,2013-03-06 02:03:00,
2013-03-05 20:08:00,57.9,9.0,30.21,WNW,283,8.7,9.6,14,0.00,,---,0.00,VWS V14.01,2013-03-06 02:08:00,
2013-03-05 20:13:00,57.7,8.9,30.21,West,278,5.8,8.1,14,0.00,,---,0.00,VWS V14.01,2013-03-06 02:13:00,
2013-03-05 20:18:00,57.7,8.9,30.21,WNW,286,7.6,11.0,14,0.00,,---,0.00,VWS V14.01,2013-03-06 02:18:00,
2013-03-05 20:23:00,57.6,8.7,30.21,WNW,288,11.0,11.0,14,0.00,,---,0.00,VWS V14.01,2013-03-06 02:23:00,
2013-03-05 20:28:00,57.4,8.6,30.21,NW,311,7.6,8.7,14,0.00,,---,0.00,VWS V14.01,2013-03-06 02:28:00,
2013-03-05 20:33:00,57.2,8.4,30.21,NNW,328,10.5,10.5,14,0.00,,---,0.00,VWS V14.01,2013-03-06 02:33:00,
2013-03-05 20:38:00,57.0,9.8,30.21,WNW,302,8.7,10.5,15,0.00,,---,0.00,VWS V14.01,2013-03-06 02:38:00,
2013-03-05 20:43:00,56.8,9.7,30.24,NW,306,8.3,8.3,15,0.00,,---,0.00,VWS V14.01,2013-03-06 02:43:00,
2013-03-05 20:48:00,56.8,9.7,30.24,West,260,6.3,10.1,15,0.00,,---,0.00,VWS V14.01,2013-03-06 02:48:00,
2013-03-05 20:53:00,56.7,9.6,30.24,WNW,295,6.3,6.7,15,0.00,,---,0.00,VWS V14.01,2013-03-06 02:53:00,
2013-03-05 20:58:00,56.5,9.4,30.24,WNW,302,6.7,8.7,15,0.00,,---,0.00,VWS V14.01,2013-03-06 02:58:00,
2013-03-05 21:03:00,56.3,9.3,30.24,WNW,301,6.3,7.6,15,0.00,,---,0.00,VWS V14.01,2013-03-06 03:03:00,
2013-03-05 21:08:00,56.1,9.1,30.24,NNW,341,5.4,8.1,15,0.00,,---,0.00,VWS V14.01,2013-03-06 03:08:00,
2013-03-05 21:13:00,55.9,9.0,30.24,WNW,300,6.3,8.7,15,0.00,,---,0.00,VWS V14.01,2013-03-06 03:13:00,
2013-03-05 21:18:00,55.8,8.8,30.24,NW,320,10.1,10.1,15,0.00,,---,0.00,VWS V14.01,2013-03-06 03:18:00,
2013-03-05 21:23:00,55.6,8.7,30.24,West,271,5.4,10.5,15,0.00,,---,0.00,VWS V14.01,2013-03-06 03:23:00,
2013-03-05 21:28:00,55.6,8.7,30.24,WNW,292,5.4,5.4,15,0.00,,---,0.00,VWS V14.01,2013-03-06 03:28:00,
2013-03-05 21:33:00,55.2,8.4,30.24,WNW,298,7.6,8.1,15,0.00,,---,0.00,VWS V14.01,2013-03-06 03:33:00,
2013-03-05 21:38:00,55.0,8.2,30.24,WNW,288,8.7,10.5,15,0.00,,---,0.00,VWS V14.01,2013-03-06 03:38:00,
2013-03-05 21:43:00,54.9,8.1,30.24,WNW,286,5.8,8.1,15,0.00,,---,0.00,VWS V14.01,2013-03-06 03:43:00,
2013-03-05 21:48:00,54.7,8.0,30.24,NW,308,10.5,10.5,15,0.00,,---,0.00,VWS V14.01,2013-03-06 03:48:00,
2013-03-05 21:53:00,54.5,7.8,30.24,West,271,9.2,9.2,15,0.00,,---,0.00,VWS V14.01,2013-03-06 03:53:00,
2013-03-05 21:58:00,54.3,7.7,30.24,WNW,300,6.3,8.7,15,0.00,,---,0.00,VWS V14.01,2013-03-06 03:58:00,
2013-03-05 22:03:00,54.3,7.7,30.24,West,271,5.4,8.1,15,0.00,,---,0.00,VWS V14.01,2013-03-06 04:03:00,
2013-03-05 22:08:00,54.3,7.7,30.24,NNW,334,8.1,8.3,15,0.00,,---,0.00,VWS V14.01,2013-03-06 04:08:00,
2013-03-05 22:13:00,54.1,7.5,30.24,WNW,295,7.6,12.8,15,0.00,,---,0.00,VWS V14.01,2013-03-06 04:13:00,
2013-03-05 22:18:00,54.0,7.4,30.24,WNW,291,7.6,7.6,15,0.00,,---,0.00,VWS V14.01,2013-03-06 04:18:00,
2013-03-05 22:23:00,53.8,7.2,30.24,NW,325,5.4,10.5,15,0.00,,---,0.00,VWS V14.01,2013-03-06 04:23:00,
2013-03-05 22:28:00,53.4,8.4,30.24,NW,306,5.4,8.1,16,0.00,,---,0.00,VWS V14.01,2013-03-06 04:28:00,
2013-03-05 22:33:00,53.2,8.2,30.24,NW,312,5.8,10.5,16,0.00,,---,0.00,VWS V14.01,2013-03-06 04:33:00,
2013-03-05 22:38:00,53.1,8.1,30.24,WNW,288,7.6,7.6,16,0.00,,---,0.00,VWS V14.01,2013-03-06 04:38:00,
2013-03-05 22:43:00,52.9,7.9,30.27,West,277,6.3,8.1,16,0.00,,---,0.00,VWS V14.01,2013-03-06 04:43:00,
2013-03-05 22:48:00,52.7,7.8,30.27,NW,307,4.9,4.9,16,0.00,,---,0.00,VWS V14.01,2013-03-06 04:48:00,
2013-03-05 22:53:00,52.7,7.8,30.27,West,272,6.3,8.7,16,0.00,,---,0.00,VWS V14.01,2013-03-06 04:53:00,
2013-03-05 22:58:00,52.7,7.8,30.27,NW,305,8.3,10.1,16,0.00,,---,0.00,VWS V14.01,2013-03-06 04:58:00,
2013-03-05 23:00:00,52.5,7.6,30.27,NW,321,6.3,11.0,16,0.00,,---,0.00,VWS V14.01,2013-03-06 05:00:00,
2013-03-05 23:05:00,52.5,7.6,30.27,NW,316,10.5,10.5,16,0.00,,---,0.00,VWS V14.01,2013-03-06 05:05:00,
2013-03-05 23:10:00,52.3,7.5,30.27,NW,319,8.1,8.1,16,0.00,,---,0.00,VWS V14.01,2013-03-06 05:10:00,
2013-03-05 23:15:00,52.2,7.3,30.27,NW,326,6.3,6.3,16,0.00,,---,0.00,VWS V14.01,2013-03-06 05:15:00,
2013-03-05 23:20:00,52.2,7.3,30.27,NW,304,11.0,11.0,16,0.00,,---,0.00,VWS V14.01,2013-03-06 05:20:00,
2013-03-05 23:25:00,52.0,7.2,30.27,NW,323,6.3,6.3,16,0.00,,---,0.00,VWS V14.01,2013-03-06 05:25:00,
2013-03-05 23:30:00,51.8,7.1,30.27,NW,305,8.7,8.7,16,0.00,,---,0.00,VWS V14.01,2013-03-06 05:30:00,
2013-03-05 23:35:00,51.4,6.8,30.27,NW,317,5.8,5.8,16,0.00,,---,0.00,VWS V14.01,2013-03-06 05:35:00,
2013-03-05 23:40:00,51.3,6.6,30.27,West,264,8.3,8.3,16,0.00,,---,0.00,VWS V14.01,2013-03-06 05:40:00,
2013-03-05 23:45:00,51.1,6.5,30.27,NW,306,4.9,5.8,16,0.00,,---,0.00,VWS V14.01,2013-03-06 05:45:00,
2013-03-05 23:50:00,50.9,6.3,30.27,NW,313,3.1,3.1,16,0.00,,---,0.00,VWS V14.01,2013-03-06 05:50:00,
2013-03-05 23:55:00,50.7,6.2,30.27,NW,310,8.1,8.1,16,0.00,,---,0.00,VWS V14.01,2013-03-06 05:55:00,